»·PEaware :: SAS186 KGCN-KPSP

SAS186 :: KGCN-KPSP

FLIGHT INFORMATION

Flight Status: Arrived
Operator:
SAS
More flights by this operator :: More flights under this callsign
Pilot: Josh G. (4619)
Aircraft: CANADAIR CL-600 CRJ-200
(CRJ2)
More flights by this aircraft type
Origin: KGCN Grand Canyon Natl Park
United States
Destination: KPSP Palm Springs Intl
United States
More flights between these airports :: More routes between these airports
Route: PARKS2 PGS EED SBONO1
File this flight plan on PilotEdge
Remarks:
Altitude:
(Current/Filed)
26,000ft
Speed:
(Current/Filed)
420kts
Departed: 25-May-16 08:59 PM
Arrived: 25-May-16 09:45 PM
Distance/Time
Traveled:
250nm/0:46
Distance/Time
To Go:
Arrived

Flight Plot

Page will automatically refresh every two minutes.


Map Options




Map Legend


Flown Route
Filed Route
Departure Airport
Arrival Airport
Navaid (VOR, NDB)
Fix

Horizontal Profiles

Position Reports

Time Latitude Longitude Heading Altitude Ground
Speed
25-May-16 20:40 35.956645 -112.139794 315 6612ft 0kts
25-May-16 20:41 35.956645 -112.139794 315 6612ft 0kts
25-May-16 20:42 35.956645 -112.139794 315 6612ft 0kts
25-May-16 20:43 35.956645 -112.139794 315 6612ft 0kts
25-May-16 20:44 35.956645 -112.139794 315 6612ft 0kts
25-May-16 20:45 35.956645 -112.139794 315 6612ft 0kts
25-May-16 20:46 35.956645 -112.139794 315 6612ft 0kts
25-May-16 20:47 35.956645 -112.139794 315 6612ft 0kts
25-May-16 20:48 35.956645 -112.139794 315 6612ft 0kts
25-May-16 20:49 35.956645 -112.139794 315 6612ft 0kts
25-May-16 20:50 35.956645 -112.139794 315 6612ft 0kts
25-May-16 20:51 35.956645 -112.139794 315 6612ft 0kts
25-May-16 20:52 35.956645 -112.139794 315 6612ft 0kts
25-May-16 20:53 35.956763 -112.139935 315 6612ft 5kts
25-May-16 20:54 35.959825 -112.137308 39 6612ft 22kts
25-May-16 20:55 35.961244 -112.136540 299 6612ft 9kts
25-May-16 20:56 35.960389 -112.138459 218 6612ft 38kts
25-May-16 20:57 35.933472 -112.167675 220 7437ft 174kts
25-May-16 20:58 35.913627 -112.227194 286 9337ft 230kts
25-May-16 20:59 35.936735 -112.310104 275 10858ft 260kts
25-May-16 21:00 35.912291 -112.393290 240 10779ft 255kts
25-May-16 21:01 35.883092 -112.480053 250 11325ft 310kts
25-May-16 21:02 35.855933 -112.587684 255 13149ft 340kts
25-May-16 21:03 35.836093 -112.702847 252 15324ft 345kts
25-May-16 21:04 35.806240 -112.815361 245 16827ft 362kts
25-May-16 21:05 35.773771 -112.934099 250 18350ft 371kts
25-May-16 21:06 35.744181 -113.055911 250 19806ft 376kts
25-May-16 21:07 35.714897 -113.177756 250 21357ft 381kts
25-May-16 21:08 35.684557 -113.302412 250 22826ft 387kts
25-May-16 21:09 35.653565 -113.428860 250 24122ft 392kts
25-May-16 21:10 35.614410 -113.552286 224 25199ft 391kts
25-May-16 21:11 35.534030 -113.643719 223 25918ft 404kts
25-May-16 21:12 35.448562 -113.737395 223 26027ft 420kts
25-May-16 21:13 35.361954 -113.831848 222 26028ft 422kts
25-May-16 21:14 35.274418 -113.926945 223 26024ft 425kts
25-May-16 21:15 35.185730 -114.023151 221 26030ft 434kts
25-May-16 21:16 35.095191 -114.121123 221 26002ft 442kts
25-May-16 21:17 35.004040 -114.219568 221 25940ft 449kts
25-May-16 21:18 34.910028 -114.320419 224 25928ft 454kts
25-May-16 21:19 34.815914 -114.421319 224 25915ft 453kts
25-May-16 21:20 34.729644 -114.529593 234 25910ft 447kts
25-May-16 21:21 34.652112 -114.646544 234 25911ft 446kts
25-May-16 21:22 34.575717 -114.761716 234 25909ft 446kts
25-May-16 21:23 34.498198 -114.878208 234 25908ft 446kts
25-May-16 21:24 34.420929 -114.993948 234 25904ft 445kts
25-May-16 21:25 34.343982 -115.108848 234 25905ft 445kts
25-May-16 21:26 34.267131 -115.223803 234 25916ft 445kts
25-May-16 21:27 34.190884 -115.336927 234 25138ft 437kts
25-May-16 21:28 34.116448 -115.446984 234 24067ft 414kts
25-May-16 21:29 34.044736 -115.552732 234 23393ft 410kts
25-May-16 21:30 33.974543 -115.655934 233 21431ft 403kts
25-May-16 21:31 33.917218 -115.763623 262 19565ft 380kts
25-May-16 21:32 33.906298 -115.886309 267 15679ft 366kts
25-May-16 21:33 33.898426 -116.004647 267 12042ft 350kts
25-May-16 21:34 33.867422 -116.098485 220 10954ft 274kts
25-May-16 21:35 33.810823 -116.151249 220 8599ft 281kts
25-May-16 21:36 33.761299 -116.196641 219 7570ft 265kts
25-May-16 21:37 33.696359 -116.259192 238 5571ft 259kts
25-May-16 21:38 33.692309 -116.323354 301 3843ft 238kts
25-May-16 21:39 33.727453 -116.385256 304 2425ft 213kts
25-May-16 21:40 33.757425 -116.439122 305 1748ft 188kts
25-May-16 21:41 33.787831 -116.470343 319 1339ft 123kts
25-May-16 21:42 33.817715 -116.497082 319 564ft 128kts
25-May-16 21:43 33.833175 -116.511640 234 482ft 9kts
25-May-16 21:44 33.830513 -116.510592 144 482ft 27kts
25-May-16 21:45 33.825706 -116.507402 239 482ft 8kts

Navigation Log

Ident Type
1. KGCN Airport
2. PGS Navaid
3. EED Navaid
4. UBABE Fix
5. CLOWD Fix
6. SBONO Fix
7. KPSP Airport